createdAt,value
2023-04-09T00:00:48.789Z,101186.16
2023-04-09T00:03:36.472Z,101186.06
2023-04-09T00:06:05.652Z,101194.00
2023-04-09T00:08:34.068Z,101192.25
2023-04-09T00:11:02.697Z,101190.53
2023-04-09T00:13:39.124Z,101190.53
2023-04-09T00:16:08.798Z,101195.81
2023-04-09T00:18:37.336Z,101195.81
2023-04-09T00:21:07.269Z,101191.38
2023-04-09T00:23:36.245Z,101189.59
2023-04-09T00:26:05.523Z,101194.88
2023-04-09T00:28:34.187Z,101189.59
2023-04-09T00:31:03.429Z,101196.56
2023-04-09T00:33:31.925Z,101190.53
2023-04-09T00:36:00.950Z,101187.97
2023-04-09T00:38:29.300Z,101199.31
2023-04-09T00:40:57.919Z,101196.66
2023-04-09T00:43:26.232Z,101195.81
2023-04-09T00:45:54.994Z,101189.69
2023-04-09T00:48:23.416Z,101186.06
2023-04-09T00:50:52.066Z,101174.59
2023-04-09T00:53:20.459Z,101171.03
2023-04-09T00:55:48.997Z,101163.25
2023-04-09T00:58:17.317Z,101171.22
2023-04-09T01:00:46.045Z,101177.25
2023-04-09T01:03:14.434Z,101176.41
2023-04-09T01:06:03.407Z,101177.25
2023-04-09T01:09:03.806Z,101185.22
2023-04-09T01:11:58.033Z,101187.88
2023-04-09T01:14:53.933Z,101192.34
2023-04-09T01:18:05.143Z,101195.94
2023-04-09T01:20:44.022Z,101196.91
2023-04-09T01:23:41.482Z,101208.25
2023-04-09T01:26:31.485Z,101215.47
2023-04-09T01:29:00.142Z,101216.19
2023-04-09T01:31:46.532Z,101210.03
2023-04-09T01:34:15.583Z,101215.31
2023-04-09T01:36:52.653Z,101207.50
2023-04-09T01:39:21.673Z,101207.59
2023-04-09T01:41:50.802Z,101206.75
2023-04-09T01:44:19.976Z,101214.59
2023-04-09T01:46:48.436Z,101218.94
2023-04-09T01:49:17.686Z,101220.75
2023-04-09T01:51:46.134Z,101223.41
2023-04-09T01:54:16.541Z,101226.16
2023-04-09T01:56:46.854Z,101215.56
2023-04-09T01:59:16.343Z,101215.47
2023-04-09T02:01:53.525Z,101218.22
2023-04-09T02:04:41.100Z,101219.16
2023-04-09T02:07:39.370Z,101216.41
2023-04-09T02:10:09.936Z,101224.34
2023-04-09T02:12:38.941Z,101220.84
2023-04-09T02:15:08.127Z,101218.22
2023-04-09T02:17:36.614Z,101219.16
2023-04-09T02:20:07.126Z,101222.66
2023-04-09T02:22:35.414Z,101224.34
2023-04-09T02:25:04.285Z,101217.38
2023-04-09T02:27:32.629Z,101220.13
2023-04-09T02:30:01.612Z,101223.59
2023-04-09T02:32:30.050Z,101227.97
2023-04-09T02:34:58.760Z,101223.50
2023-04-09T02:37:27.066Z,101220.94
2023-04-09T02:39:55.924Z,101224.44
2023-04-09T02:42:24.234Z,101222.66
2023-04-09T02:44:52.794Z,101219.16
2023-04-09T02:47:21.439Z,101221.78
2023-04-09T02:49:50.177Z,101215.66
2023-04-09T02:52:20.411Z,101227.09
2023-04-09T02:54:49.066Z,101219.28
2023-04-09T02:57:17.368Z,101221.78
2023-04-09T02:59:46.742Z,101216.50
2023-04-09T03:02:15.174Z,101224.44
2023-04-09T03:04:44.008Z,101217.47
2023-04-09T03:07:12.346Z,101224.56
2023-04-09T03:09:40.936Z,101219.28
2023-04-09T03:12:09.177Z,101219.38
2023-04-09T03:14:37.983Z,101215.88
2023-04-09T03:17:06.476Z,101221.06
2023-04-09T03:19:35.114Z,101222.75
2023-04-09T03:22:03.727Z,101223.69
2023-04-09T03:24:33.986Z,101224.66
2023-04-09T03:27:05.660Z,101221.06
2023-04-09T03:29:34.911Z,101229.13
2023-04-09T03:32:03.709Z,101225.50
2023-04-09T03:34:32.368Z,101221.19
2023-04-09T03:37:01.082Z,101217.66
2023-04-09T03:39:32.925Z,101221.19
2023-04-09T03:42:02.093Z,101222.13
2023-04-09T03:44:41.009Z,101222.97
2023-04-09T03:47:12.753Z,101221.28
2023-04-09T03:49:41.680Z,101219.47
2023-04-09T03:52:30.528Z,101219.47
2023-04-09T03:55:07.961Z,101224.75
2023-04-09T03:57:37.211Z,101215.97
2023-04-09T04:00:11.174Z,101220.41
2023-04-09T04:03:06.173Z,101224.03
2023-04-09T04:06:03.270Z,101216.06
2023-04-09T04:08:41.544Z,101229.22
2023-04-09T04:11:11.727Z,101218.72
2023-04-09T04:13:41.284Z,101219.56
2023-04-09T04:16:11.981Z,101224.03
2023-04-09T04:18:43.719Z,101224.97
2023-04-09T04:21:16.492Z,101224.03
2023-04-09T04:23:49.702Z,101225.69
2023-04-09T04:26:21.984Z,101226.69
2023-04-09T04:28:50.825Z,101226.69
2023-04-09T04:31:34.534Z,101231.13
2023-04-09T04:34:03.858Z,101233.78
2023-04-09T04:36:32.731Z,101232.16
2023-04-09T04:39:01.167Z,101241.94
2023-04-09T04:41:39.144Z,101240.03
2023-04-09T04:44:16.214Z,101245.34
2023-04-09T04:46:44.924Z,101245.34
2023-04-09T04:49:13.296Z,101248.06
2023-04-09T04:51:49.875Z,101246.31
2023-04-09T04:54:18.870Z,101247.97
2023-04-09T04:56:53.762Z,101245.34
2023-04-09T04:59:54.505Z,101248.06
2023-04-09T05:02:23.893Z,101246.41
2023-04-09T05:05:16.016Z,101241.94
2023-04-09T05:07:53.747Z,101248.94
2023-04-09T05:10:23.239Z,101252.53
2023-04-09T05:12:51.917Z,101264.84
2023-04-09T05:15:28.983Z,101261.34
2023-04-09T05:17:58.383Z,101271.94
2023-04-09T05:20:28.481Z,101260.50
2023-04-09T05:23:06.364Z,101273.75
2023-04-09T05:25:41.275Z,101273.75
2023-04-09T05:28:19.364Z,101270.16
2023-04-09T05:30:51.688Z,101266.63
2023-04-09T05:33:21.366Z,101269.28
2023-04-09T05:35:53.074Z,101262.31
2023-04-09T05:38:22.477Z,101273.66
2023-04-09T05:40:57.577Z,101273.75
2023-04-09T05:43:26.727Z,101270.91
2023-04-09T05:45:55.149Z,101274.41
2023-04-09T05:48:24.503Z,101279.72
2023-04-09T05:50:55.770Z,101283.09
2023-04-09T05:53:27.744Z,101281.41
2023-04-09T05:55:56.357Z,101275.34
2023-04-09T05:58:29.846Z,101280.47
2023-04-09T06:00:59.529Z,101277.81
2023-04-09T06:03:28.953Z,101277.72
2023-04-09T06:05:57.433Z,101289.06
2023-04-09T06:08:26.043Z,101281.13
2023-04-09T06:10:54.347Z,101286.41
2023-04-09T06:13:24.609Z,101289.91
2023-04-09T06:15:53.091Z,101288.97
2023-04-09T06:18:22.271Z,101303.91
2023-04-09T06:20:50.492Z,101298.53
2023-04-09T06:23:19.257Z,101299.44
2023-04-09T06:25:47.506Z,101303.81
2023-04-09T06:28:16.618Z,101298.53
2023-04-09T06:30:44.964Z,101298.63
2023-04-09T06:33:13.713Z,101302.97
2023-04-09T06:35:42.597Z,101298.41
2023-04-09T06:38:11.334Z,101309.03
2023-04-09T06:40:39.799Z,101317.84
2023-04-09T06:43:08.440Z,101315.19
2023-04-09T06:45:51.656Z,101309.03
2023-04-09T06:48:20.665Z,101313.38
2023-04-09T06:50:49.188Z,101317.84
2023-04-09T06:53:18.425Z,101318.59
2023-04-09T06:55:46.682Z,101331.75
2023-04-09T06:58:16.650Z,101324.63
2023-04-09T07:00:45.096Z,101322.06
2023-04-09T07:03:15.004Z,101326.53
2023-04-09T07:05:43.499Z,101331.75
2023-04-09T07:08:12.641Z,101328.25
2023-04-09T07:10:41.121Z,101335.16
2023-04-09T07:13:09.926Z,101327.09
2023-04-09T07:15:40.014Z,101327.94
2023-04-09T07:18:10.594Z,101329.75
2023-04-09T07:20:39.162Z,101337.72
2023-04-09T07:23:07.857Z,101332.41
2023-04-09T07:25:36.667Z,101342.13
2023-04-09T07:28:05.508Z,101344.59
2023-04-09T07:30:33.874Z,101337.28
2023-04-09T07:33:02.714Z,101338.88
2023-04-09T07:35:32.389Z,101335.06
2023-04-09T07:38:01.167Z,101343.03
2023-04-09T07:40:29.694Z,101345.41
2023-04-09T07:42:58.553Z,101343.81
2023-04-09T07:45:26.976Z,101342.75
2023-04-09T07:47:56.277Z,101353.19
2023-04-09T07:50:24.690Z,101351.69
2023-04-09T07:52:53.424Z,101355.31
2023-04-09T07:55:21.903Z,101353.84
2023-04-09T07:57:51.836Z,101361.34
2023-04-09T08:00:20.087Z,101362.28
2023-04-09T08:02:48.985Z,101365.00
2023-04-09T08:05:17.636Z,101364.25
2023-04-09T08:07:46.667Z,101368.50
2023-04-09T08:10:16.378Z,101368.03
2023-04-09T08:12:45.100Z,101368.38
2023-04-09T08:15:13.382Z,101368.84
2023-04-09T08:17:41.944Z,101376.16
2023-04-09T08:20:11.453Z,101373.69
2023-04-09T08:22:41.248Z,101374.19
2023-04-09T08:25:09.663Z,101374.34
2023-04-09T08:27:39.891Z,101374.34
2023-04-09T08:30:09.206Z,101381.13
2023-04-09T08:32:38.029Z,101393.44
2023-04-09T08:35:07.466Z,101381.06
2023-04-09T08:37:36.137Z,101389.97
2023-04-09T08:40:04.998Z,101395.78
2023-04-09T08:42:36.020Z,101393.13
2023-04-09T08:45:05.626Z,101389.72
2023-04-09T08:47:34.519Z,101383.66
2023-04-09T08:50:02.914Z,101389.81
2023-04-09T08:52:33.332Z,101389.22
2023-04-09T08:55:01.813Z,101387.72
2023-04-09T08:57:30.878Z,101386.69
2023-04-09T08:59:59.245Z,101388.00
2023-04-09T09:02:28.151Z,101386.56
2023-04-09T09:05:00.986Z,101383.34
2023-04-09T09:07:30.723Z,101379.81
2023-04-09T09:10:02.729Z,101376.59
2023-04-09T09:12:40.390Z,101377.59
2023-04-09T09:15:29.144Z,101384.59
2023-04-09T09:17:59.945Z,101378.25
2023-04-09T09:20:29.601Z,101386.59
2023-04-09T09:22:58.635Z,101388.91
2023-04-09T09:25:26.986Z,101389.78
2023-04-09T09:27:55.589Z,101382.78
2023-04-09T09:30:27.672Z,101389.03
2023-04-09T09:33:12.412Z,101388.06
2023-04-09T09:35:51.571Z,101390.00
2023-04-09T09:38:20.787Z,101387.44
2023-04-09T09:40:49.902Z,101383.94
2023-04-09T09:43:18.456Z,101384.59
2023-04-09T09:45:47.984Z,101379.19
2023-04-09T09:48:16.689Z,101384.50
2023-04-09T09:50:44.987Z,101389.56
2023-04-09T09:53:13.830Z,101385.25
2023-04-09T09:55:43.964Z,101377.28
2023-04-09T09:58:34.686Z,101382.59
2023-04-09T10:01:03.902Z,101380.03
2023-04-09T10:03:33.182Z,101380.69
2023-04-09T10:06:01.979Z,101370.06
2023-04-09T10:08:33.796Z,101383.22
2023-04-09T10:11:02.472Z,101375.38
2023-04-09T10:13:52.898Z,101383.34
2023-04-09T10:16:23.625Z,101378.66
2023-04-09T10:18:52.707Z,101378.78
2023-04-09T10:21:45.656Z,101370.06
2023-04-09T10:24:14.342Z,101368.91
2023-04-09T10:26:45.157Z,101370.69
2023-04-09T10:29:17.009Z,101366.44
2023-04-09T10:31:51.673Z,101370.06
2023-04-09T10:34:24.767Z,101370.59
2023-04-09T10:37:03.203Z,101365.38
2023-04-09T10:39:32.406Z,101369.56
2023-04-09T10:42:04.838Z,101365.28
2023-04-09T10:44:36.006Z,101365.38
2023-04-09T10:47:06.047Z,101359.22
2023-04-09T10:49:42.039Z,101351.59
2023-04-09T10:52:14.276Z,101355.63
2023-04-09T10:54:47.163Z,101352.66
2023-04-09T10:57:22.590Z,101349.19
2023-04-09T10:59:54.124Z,101349.06
2023-04-09T11:02:45.954Z,101343.66
2023-04-09T11:05:38.556Z,101344.38
2023-04-09T11:08:14.175Z,101342.81
2023-04-09T11:10:45.143Z,101337.41
2023-04-09T11:13:15.020Z,101337.41
2023-04-09T11:15:44.709Z,101325.38
2023-04-09T11:18:29.508Z,101328.88
2023-04-09T11:21:03.320Z,101327.84
2023-04-09T11:23:32.302Z,101322.53
2023-04-09T11:26:02.139Z,101328.69
2023-04-09T11:28:30.453Z,101332.28
2023-04-09T11:30:59.364Z,101334.00
2023-04-09T11:33:34.628Z,101330.38
2023-04-09T11:36:06.640Z,101326.78
2023-04-09T11:38:36.777Z,101333.03
2023-04-09T11:41:05.644Z,101325.94
2023-04-09T11:43:36.596Z,101327.63
2023-04-09T11:46:06.308Z,101329.34
2023-04-09T11:48:34.904Z,101329.13
2023-04-09T11:51:04.516Z,101317.75
2023-04-09T11:53:32.906Z,101324.22
2023-04-09T11:56:01.799Z,101316.16
2023-04-09T11:58:30.126Z,101321.47
2023-04-09T12:00:59.415Z,101323.94
2023-04-09T12:03:33.155Z,101315.97
2023-04-09T12:06:03.284Z,101307.22
2023-04-09T12:08:32.015Z,101309.88
2023-04-09T12:11:12.826Z,101312.75
2023-04-09T12:13:44.856Z,101304.72
2023-04-09T12:16:14.340Z,101305.22
2023-04-09T12:18:42.883Z,101303.63
2023-04-09T12:21:11.657Z,101309.78
2023-04-09T12:23:39.997Z,101296.22
2023-04-09T12:26:08.572Z,101295.25
2023-04-09T12:28:37.205Z,101295.25
2023-04-09T12:31:09.582Z,101296.09
2023-04-09T12:33:39.133Z,101288.03
2023-04-09T12:36:08.137Z,101293.34
2023-04-09T12:38:36.777Z,101283.69
2023-04-09T12:41:05.865Z,101279.22
2023-04-09T12:43:34.250Z,101283.69
2023-04-09T12:46:03.135Z,101283.69
2023-04-09T12:48:31.777Z,101280.91
2023-04-09T12:51:00.732Z,101286.88
2023-04-09T12:53:29.277Z,101282.44
2023-04-09T12:55:58.144Z,101289.44
2023-04-09T12:58:26.465Z,101281.38
2023-04-09T13:00:57.154Z,101282.53
2023-04-09T13:03:26.073Z,101282.53
2023-04-09T13:05:54.822Z,101281.03
2023-04-09T13:08:23.143Z,101276.47
2023-04-09T13:10:51.916Z,101270.53
2023-04-09T13:13:20.222Z,101278.25
2023-04-09T13:15:48.780Z,101277.53
2023-04-09T13:18:17.101Z,101269.88
2023-04-09T13:20:45.718Z,101269.88
2023-04-09T13:23:14.058Z,101266.38
2023-04-09T13:25:42.697Z,101261.81
2023-04-09T13:28:11.180Z,101263.41
2023-04-09T13:30:39.858Z,101253.53
2023-04-09T13:33:08.320Z,101249.94
2023-04-09T13:35:37.026Z,101247.38
2023-04-09T13:38:05.566Z,101248.97
2023-04-09T13:40:34.194Z,101243.88
2023-04-09T13:43:02.564Z,101243.16
2023-04-09T13:45:33.626Z,101241.22
2023-04-09T13:48:02.023Z,101236.88
2023-04-09T13:50:31.035Z,101228.91
2023-04-09T13:52:59.583Z,101237.59
2023-04-09T13:55:31.193Z,101228.91
2023-04-09T13:57:59.549Z,101225.06
2023-04-09T14:00:28.193Z,101225.19
2023-04-09T14:02:56.745Z,101221.69
2023-04-09T14:05:26.017Z,101219.03
2023-04-09T14:07:54.354Z,101220.00
2023-04-09T14:10:23.404Z,101212.97
2023-04-09T14:12:52.210Z,101215.72
2023-04-09T14:15:20.873Z,101218.50
2023-04-09T14:17:49.218Z,101214.16
2023-04-09T14:20:20.180Z,101208.84
2023-04-09T14:22:49.682Z,101216.69
2023-04-09T14:25:18.382Z,101219.13
2023-04-09T14:27:47.143Z,101213.81
2023-04-09T14:30:15.949Z,101214.03
2023-04-09T14:32:44.865Z,101212.13
2023-04-09T14:35:13.473Z,101207.91
2023-04-09T14:37:41.788Z,101218.72
2023-04-09T14:40:10.896Z,101222.22
2023-04-09T14:42:41.514Z,101219.56
2023-04-09T14:45:11.232Z,101208.00
2023-04-09T14:47:39.765Z,101216.06
2023-04-09T14:50:10.390Z,101207.34
2023-04-09T14:52:39.077Z,101216.25
2023-04-09T14:55:12.495Z,101213.59
2023-04-09T14:57:42.146Z,101212.75
2023-04-09T15:00:12.267Z,101217.13
2023-04-09T15:02:41.668Z,101217.22
2023-04-09T15:05:11.292Z,101223.28
2023-04-09T15:07:39.862Z,101217.97
2023-04-09T15:10:09.297Z,101213.59
2023-04-09T15:12:37.572Z,101216.91
2023-04-09T15:15:08.374Z,101216.16
2023-04-09T15:17:36.883Z,101211.81
2023-04-09T15:20:06.425Z,101216.25
2023-04-09T15:22:34.837Z,101218.16
2023-04-09T15:25:04.016Z,101224.22
2023-04-09T15:27:32.339Z,101222.53
2023-04-09T15:30:01.091Z,101222.31
2023-04-09T15:32:31.202Z,101222.53
2023-04-09T15:35:01.254Z,101219.88
2023-04-09T15:37:29.670Z,101227.94
2023-04-09T15:39:58.268Z,101233.25
2023-04-09T15:42:27.281Z,101227.94
2023-04-09T15:44:56.153Z,101231.66
2023-04-09T15:47:24.557Z,101243.13
2023-04-09T15:49:53.303Z,101237.06
2023-04-09T15:52:21.720Z,101241.53
2023-04-09T15:54:50.476Z,101239.81
2023-04-09T15:57:19.693Z,101241.81
2023-04-09T15:59:48.602Z,101246.09
2023-04-09T16:02:17.009Z,101243.44
2023-04-09T16:04:45.957Z,101246.09
2023-04-09T16:07:17.556Z,101237.41
2023-04-09T16:09:46.728Z,101241.00
2023-04-09T16:12:14.998Z,101249.78
2023-04-09T16:14:43.771Z,101256.91
2023-04-09T16:17:12.205Z,101257.00
2023-04-09T16:19:42.292Z,101260.53
2023-04-09T16:22:11.596Z,101259.88
2023-04-09T16:24:40.637Z,101264.13
2023-04-09T16:27:08.990Z,101262.31
2023-04-09T16:29:37.705Z,101269.66
2023-04-09T16:32:06.338Z,101271.25
2023-04-09T16:34:35.181Z,101267.75
2023-04-09T16:37:03.621Z,101273.06
2023-04-09T16:39:32.323Z,101266.03
2023-04-09T16:42:01.710Z,101272.31
2023-04-09T16:44:30.814Z,101271.34
2023-04-09T16:46:59.220Z,101273.16
2023-04-09T16:49:27.852Z,101274.09
2023-04-09T16:51:57.557Z,101274.97
2023-04-09T16:54:26.390Z,101270.59
2023-04-09T16:56:57.381Z,101260.06
2023-04-09T16:59:26.070Z,101270.69
2023-04-09T17:01:54.628Z,101276.84
2023-04-09T17:04:23.656Z,101276.84
2023-04-09T17:06:52.048Z,101278.66
2023-04-09T17:09:21.011Z,101276.00
2023-04-09T17:11:49.351Z,101275.16
2023-04-09T17:14:18.274Z,101281.38
2023-04-09T17:16:47.211Z,101278.72
2023-04-09T17:19:16.039Z,101274.28
2023-04-09T17:21:44.344Z,101287.53
2023-04-09T17:24:13.280Z,101275.31
2023-04-09T17:26:41.891Z,101290.19
2023-04-09T17:29:10.649Z,101291.13
2023-04-09T17:31:39.207Z,101293.72
2023-04-09T17:34:08.767Z,101292.94
2023-04-09T17:36:37.464Z,101301.84
2023-04-09T17:39:06.594Z,101298.25
2023-04-09T17:41:35.142Z,101301.00
2023-04-09T17:44:03.915Z,101320.31
2023-04-09T17:46:32.351Z,101319.47
2023-04-09T17:49:01.106Z,101319.47
2023-04-09T17:51:29.394Z,101319.47
2023-04-09T17:53:58.399Z,101324.03
2023-04-09T17:56:27.303Z,101328.38
2023-04-09T17:58:57.372Z,101323.06
2023-04-09T18:01:25.726Z,101321.38
2023-04-09T18:03:55.091Z,101333.69
2023-04-09T18:06:23.804Z,101323.06
2023-04-09T18:08:53.637Z,101335.41
2023-04-09T18:11:23.971Z,101338.03
2023-04-09T18:13:52.651Z,101340.69
2023-04-09T18:16:23.502Z,101350.47
2023-04-09T18:18:52.642Z,101344.41
2023-04-09T18:21:22.286Z,101354.91
2023-04-09T18:23:51.314Z,101369.03
2023-04-09T18:26:19.621Z,101364.66
2023-04-09T18:28:48.549Z,101365.50
2023-04-09T18:31:17.166Z,101370.81
2023-04-09T18:33:45.773Z,101370.81
2023-04-09T18:36:14.438Z,101376.13
2023-04-09T18:38:43.692Z,101378.03
2023-04-09T18:41:16.754Z,101385.81
2023-04-09T18:43:45.950Z,101386.75
2023-04-09T18:46:14.336Z,101398.22
2023-04-09T18:48:49.401Z,101385.91
2023-04-09T18:51:20.206Z,101397.34
2023-04-09T18:53:54.971Z,101402.66
2023-04-09T18:56:23.337Z,101406.28
2023-04-09T18:58:52.300Z,101407.13
2023-04-09T19:01:21.430Z,101412.34
2023-04-09T19:03:50.691Z,101412.44
2023-04-09T19:06:20.042Z,101414.22
2023-04-09T19:08:50.256Z,101410.06
2023-04-09T19:11:18.752Z,101420.38
2023-04-09T19:13:47.804Z,101423.88
2023-04-09T19:16:17.283Z,101423.03
2023-04-09T19:18:47.287Z,101424.84
2023-04-09T19:21:18.075Z,101430.16
2023-04-09T19:23:47.161Z,101428.44
2023-04-09T19:26:15.972Z,101431.97
2023-04-09T19:28:46.075Z,101437.28
2023-04-09T19:31:14.845Z,101451.38
2023-04-09T19:33:46.317Z,101443.41
2023-04-09T19:36:14.645Z,101458.50
2023-04-09T19:38:43.623Z,101454.03
2023-04-09T19:41:12.218Z,101461.16
2023-04-09T19:43:42.303Z,101464.63
2023-04-09T19:46:10.784Z,101468.13
2023-04-09T19:48:41.236Z,101464.63
2023-04-09T19:51:17.431Z,101462.16
2023-04-09T19:53:49.556Z,101462.91
2023-04-09T19:56:18.786Z,101467.28
2023-04-09T19:58:48.290Z,101462.84
2023-04-09T20:01:17.505Z,101462.00
2023-04-09T20:03:47.295Z,101469.09
2023-04-09T20:06:16.611Z,101462.84
2023-04-09T20:08:45.713Z,101469.94
2023-04-09T20:11:18.547Z,101475.25
2023-04-09T20:13:48.282Z,101474.41
2023-04-09T20:16:16.756Z,101474.41
2023-04-09T20:18:45.540Z,101484.16
2023-04-09T20:21:14.606Z,101474.50
2023-04-09T20:23:45.526Z,101483.31
2023-04-09T20:26:13.920Z,101482.47
2023-04-09T20:28:42.697Z,101480.66
2023-04-09T20:31:11.194Z,101488.59
2023-04-09T20:33:39.856Z,101478.09
2023-04-09T20:36:18.782Z,101485.97
2023-04-09T20:38:48.714Z,101484.34
2023-04-09T20:41:17.548Z,101492.09
2023-04-09T20:43:47.258Z,101493.06
2023-04-09T20:46:16.712Z,101491.34
2023-04-09T20:48:46.316Z,101491.25
2023-04-09T20:51:15.580Z,101491.44
2023-04-09T20:53:46.356Z,101495.72
2023-04-09T20:56:16.297Z,101499.31
2023-04-09T20:58:45.767Z,101499.22
2023-04-09T21:01:15.052Z,101493.06
2023-04-09T21:03:45.510Z,101491.34
2023-04-09T21:06:14.826Z,101489.44
2023-04-09T21:08:44.416Z,101498.38
2023-04-09T21:11:13.196Z,101504.53
2023-04-09T21:13:53.924Z,101502.72
2023-04-09T21:16:23.611Z,101511.56
2023-04-09T21:18:53.091Z,101503.69
2023-04-09T21:21:21.724Z,101507.19
2023-04-09T21:23:50.758Z,101513.31
2023-04-09T21:26:19.843Z,101515.13
2023-04-09T21:28:50.726Z,101512.56
2023-04-09T21:31:19.308Z,101514.28
2023-04-09T21:33:48.234Z,101522.34
2023-04-09T21:36:16.802Z,101519.69
2023-04-09T21:38:45.494Z,101527.66
2023-04-09T21:41:14.159Z,101525.84
2023-04-09T21:43:43.007Z,101527.56
2023-04-09T21:46:11.515Z,101525.00
2023-04-09T21:48:41.008Z,101532.88
2023-04-09T21:51:12.343Z,101535.59
2023-04-09T21:53:41.410Z,101522.25
2023-04-09T21:56:10.165Z,101525.84
2023-04-09T21:58:38.963Z,101532.94
2023-04-09T22:01:15.799Z,101534.75
2023-04-09T22:03:51.696Z,101533.78
2023-04-09T22:06:20.205Z,101526.81
2023-04-09T22:08:55.615Z,101531.22
2023-04-09T22:11:28.091Z,101532.09
2023-04-09T22:13:57.903Z,101537.41
2023-04-09T22:16:26.626Z,101532.94
2023-04-09T22:18:55.818Z,101541.75
2023-04-09T22:21:24.311Z,101534.75
2023-04-09T22:23:53.259Z,101545.38
2023-04-09T22:26:22.156Z,101538.34
2023-04-09T22:28:51.123Z,101542.72
2023-04-09T22:31:20.053Z,101544.41
2023-04-09T22:33:48.863Z,101540.91
2023-04-09T22:36:17.370Z,101542.72
2023-04-09T22:38:46.351Z,101548.03
2023-04-09T22:41:16.164Z,101546.31
2023-04-09T22:43:44.917Z,101555.97
2023-04-09T22:46:13.283Z,101555.97
2023-04-09T22:48:44.911Z,101554.25
2023-04-09T22:51:14.645Z,101550.69
2023-04-09T22:53:43.353Z,101549.94
2023-04-09T22:56:12.765Z,101555.22
2023-04-09T22:58:41.710Z,101552.56
2023-04-09T23:01:10.158Z,101556.06
2023-04-09T23:03:38.998Z,101554.25
2023-04-09T23:06:07.429Z,101548.13
2023-04-09T23:08:36.548Z,101556.91
2023-04-09T23:11:07.417Z,101561.28
2023-04-09T23:13:37.622Z,101556.16
2023-04-09T23:16:08.030Z,101559.56
2023-04-09T23:18:36.983Z,101565.84
2023-04-09T23:21:11.104Z,101567.53
2023-04-09T23:23:39.850Z,101559.56
2023-04-09T23:26:08.298Z,101566.69
2023-04-09T23:28:37.266Z,101564.13
2023-04-09T23:31:06.982Z,101561.47
2023-04-09T23:33:35.673Z,101554.34
2023-04-09T23:36:04.303Z,101559.66
2023-04-09T23:38:32.979Z,101560.53
2023-04-09T23:41:01.670Z,101558.81
2023-04-09T23:43:30.422Z,101562.31
2023-04-09T23:45:58.742Z,101557.00
2023-04-09T23:48:27.689Z,101560.53
2023-04-09T23:50:55.942Z,101560.53
2023-04-09T23:53:25.177Z,101557.00
2023-04-09T23:55:53.511Z,101553.50
2023-04-09T23:58:22.523Z,101553.50
